createdAt,value
2022-12-14T00:02:28.782Z,23.60
2022-12-14T00:05:00.491Z,20.17
2022-12-14T00:07:32.342Z,16.40
2022-12-14T00:10:00.051Z,17.25
2022-12-14T00:12:27.153Z,13.02
2022-12-14T00:14:54.313Z,13.60
2022-12-14T00:17:30.157Z,15.70
2022-12-14T00:19:57.038Z,17.58
2022-12-14T00:22:24.083Z,11.77
2022-12-14T00:24:50.941Z,11.77
2022-12-14T00:27:18.078Z,9.88
2022-12-14T00:29:45.133Z,9.80
2022-12-14T00:32:12.752Z,9.70
2022-12-14T00:34:39.550Z,8.70
2022-12-14T00:37:06.404Z,9.30
2022-12-14T00:39:33.885Z,10.40
2022-12-14T00:42:01.030Z,11.57
2022-12-14T00:44:27.883Z,15.07
2022-12-14T00:46:54.810Z,15.65
2022-12-14T00:49:21.676Z,15.88
2022-12-14T00:51:48.458Z,17.85
2022-12-14T00:54:15.385Z,18.75
2022-12-14T00:56:42.158Z,18.52
2022-12-14T00:59:09.067Z,17.33
2022-12-14T01:01:36.408Z,18.10
2022-12-14T01:04:19.681Z,17.45
2022-12-14T01:06:48.916Z,17.05
2022-12-14T01:09:17.050Z,16.85
2022-12-14T01:11:44.084Z,16.95
2022-12-14T01:14:13.654Z,16.60
2022-12-14T01:16:41.654Z,15.93
2022-12-14T01:19:11.368Z,14.10
2022-12-14T01:21:38.460Z,12.88
2022-12-14T01:24:06.340Z,10.05
2022-12-14T01:26:37.789Z,9.20
2022-12-14T01:29:06.301Z,8.07
2022-12-14T01:31:35.494Z,6.95
2022-12-14T01:34:02.790Z,6.63
2022-12-14T01:36:32.116Z,6.88
2022-12-14T01:39:10.385Z,5.90
2022-12-14T01:41:52.893Z,6.88
2022-12-14T01:44:19.703Z,6.28
2022-12-14T01:47:12.398Z,6.32
2022-12-14T01:49:47.329Z,5.85
2022-12-14T01:52:29.290Z,6.95
2022-12-14T01:55:02.695Z,6.10
2022-12-14T01:57:47.085Z,6.53
2022-12-14T02:00:15.347Z,6.10
2022-12-14T02:02:48.210Z,4.63
2022-12-14T02:05:18.195Z,3.92
2022-12-14T02:07:48.888Z,5.65
2022-12-14T02:10:17.053Z,4.88
2022-12-14T02:12:51.031Z,4.53
2022-12-14T02:15:18.664Z,4.22
2022-12-14T02:17:47.172Z,4.85
2022-12-14T02:20:16.173Z,4.72
2022-12-14T02:23:41.813Z,4.80
2022-12-14T02:26:38.170Z,4.57
2022-12-14T02:29:22.061Z,4.47
2022-12-14T02:32:04.701Z,4.00
2022-12-14T02:37:18.458Z,4.32
2022-12-14T02:39:55.766Z,3.70
2022-12-14T02:42:35.359Z,4.45
2022-12-14T02:45:11.348Z,4.60
2022-12-14T02:47:51.176Z,10.32
2022-12-14T02:50:18.085Z,12.50
2022-12-14T02:53:10.933Z,11.82
2022-12-14T02:58:35.697Z,12.63
2022-12-14T03:01:03.625Z,12.20
2022-12-14T03:03:30.906Z,11.23
2022-12-14T03:06:00.753Z,10.10
2022-12-14T03:08:34.336Z,9.63
2022-12-14T03:11:05.182Z,8.63
2022-12-14T03:13:41.032Z,8.48
2022-12-14T03:16:34.740Z,7.25
2022-12-14T03:19:11.803Z,7.40
2022-12-14T03:21:44.332Z,8.27
2022-12-14T03:24:15.114Z,6.97
2022-12-14T03:27:06.441Z,8.02
2022-12-14T03:29:41.146Z,7.20
2022-12-14T03:32:15.846Z,6.32
2022-12-14T03:35:21.246Z,6.20
2022-12-14T03:37:54.755Z,6.13
2022-12-14T03:40:30.637Z,6.97
2022-12-14T03:43:18.563Z,6.38
2022-12-14T03:45:55.506Z,7.63
2022-12-14T03:48:46.811Z,6.80
2022-12-14T03:51:28.662Z,5.80
2022-12-14T03:54:14.242Z,4.45
2022-12-14T03:56:55.006Z,5.90
2022-12-14T03:59:41.469Z,5.90
2022-12-14T04:02:15.661Z,5.85
2022-12-14T04:04:51.498Z,6.15
2022-12-14T04:07:30.910Z,5.75
2022-12-14T04:10:37.505Z,5.70
2022-12-14T04:13:30.586Z,5.80
2022-12-14T04:16:22.628Z,5.95
2022-12-14T04:19:00.530Z,5.00
2022-12-14T04:21:46.445Z,5.75
2022-12-14T04:24:37.676Z,5.80
2022-12-14T04:27:18.606Z,5.63
2022-12-14T04:29:57.800Z,5.82
2022-12-14T04:32:40.642Z,6.00
2022-12-14T04:35:27.810Z,6.40
2022-12-14T04:38:17.761Z,6.13
2022-12-14T04:40:59.782Z,6.15
2022-12-14T04:43:36.755Z,5.97
2022-12-14T04:46:13.799Z,5.82
2022-12-14T04:49:06.262Z,4.93
2022-12-14T04:51:46.675Z,5.65
2022-12-14T04:54:24.396Z,5.97
2022-12-14T04:57:19.683Z,6.85
2022-12-14T04:59:47.548Z,10.52
2022-12-14T05:02:25.901Z,15.77
2022-12-14T05:05:08.031Z,9.90
2022-12-14T05:07:58.812Z,8.65
2022-12-14T05:10:46.591Z,6.68
2022-12-14T05:13:26.203Z,6.40
2022-12-14T05:15:56.069Z,6.30
2022-12-14T05:18:23.542Z,7.13
2022-12-14T05:20:51.034Z,7.20
2022-12-14T05:25:59.741Z,8.05
2022-12-14T05:28:32.026Z,7.10
2022-12-14T05:30:59.298Z,7.43
2022-12-14T05:33:26.975Z,7.25
2022-12-14T05:35:54.440Z,8.38
2022-12-14T05:38:21.638Z,7.18
2022-12-14T05:40:48.566Z,8.07
2022-12-14T05:43:15.885Z,7.25
2022-12-14T05:45:43.008Z,8.20
2022-12-14T05:48:09.881Z,7.25
2022-12-14T05:50:36.943Z,7.32
2022-12-14T05:53:03.769Z,9.80
2022-12-14T05:55:30.801Z,9.43
2022-12-14T05:57:57.634Z,12.45
2022-12-14T06:00:24.508Z,13.95
2022-12-14T06:02:51.437Z,8.80
2022-12-14T06:05:22.546Z,19.50
2022-12-14T06:07:49.431Z,11.95
2022-12-14T06:10:16.263Z,13.13
2022-12-14T06:12:44.886Z,11.18
2022-12-14T06:15:11.778Z,10.10
2022-12-14T06:17:46.412Z,9.27
2022-12-14T06:20:14.464Z,13.93
2022-12-14T06:22:47.212Z,15.15
2022-12-14T06:25:14.317Z,14.55
2022-12-14T06:27:41.292Z,13.95
2022-12-14T06:30:09.130Z,13.13
2022-12-14T06:32:35.996Z,14.10
2022-12-14T06:35:03.008Z,14.93
2022-12-14T06:37:34.278Z,15.27
2022-12-14T06:40:03.733Z,17.02
2022-12-14T06:42:31.064Z,15.23
2022-12-14T06:44:59.974Z,17.13
2022-12-14T06:47:27.160Z,17.00
2022-12-14T06:49:54.985Z,15.15
2022-12-14T06:52:26.694Z,16.23
2022-12-14T06:54:55.455Z,16.38
2022-12-14T06:57:22.768Z,20.30
2022-12-14T06:59:54.495Z,17.92
2022-12-14T07:02:22.802Z,18.33
2022-12-14T07:04:50.230Z,18.27
2022-12-14T07:07:17.237Z,17.75
2022-12-14T07:09:44.196Z,16.90
2022-12-14T07:12:11.119Z,17.90
2022-12-14T07:14:41.859Z,19.33
2022-12-14T07:17:09.891Z,18.92
2022-12-14T07:19:39.881Z,17.15
2022-12-14T07:22:06.988Z,17.48
2022-12-14T07:24:34.082Z,16.35
2022-12-14T07:27:01.061Z,17.25
2022-12-14T07:29:34.127Z,15.27
2022-12-14T07:32:01.847Z,14.23
2022-12-14T07:34:28.751Z,12.48
2022-12-14T07:36:56.147Z,19.02
2022-12-14T07:39:23.328Z,57.35
2022-12-14T07:41:51.116Z,58.30
2022-12-14T07:44:19.365Z,22.63
2022-12-14T07:46:46.421Z,18.60
2022-12-14T07:49:13.807Z,17.35
2022-12-14T07:51:42.163Z,15.77
2022-12-14T07:54:11.186Z,17.35
2022-12-14T07:56:46.357Z,16.95
2022-12-14T07:59:19.465Z,17.17
2022-12-14T08:01:50.328Z,19.88
2022-12-14T08:04:19.330Z,22.75
2022-12-14T08:06:47.833Z,19.40
2022-12-14T08:09:15.777Z,15.93
2022-12-14T08:11:42.960Z,18.80
2022-12-14T08:14:17.246Z,16.40
2022-12-14T08:16:48.152Z,17.08
2022-12-14T08:19:17.770Z,16.50
2022-12-14T08:21:53.415Z,16.55
2022-12-14T08:24:20.886Z,16.98
2022-12-14T08:26:49.425Z,17.20
2022-12-14T08:29:17.185Z,19.40
2022-12-14T08:31:44.217Z,17.08
2022-12-14T08:34:11.194Z,17.73
2022-12-14T08:36:40.610Z,16.52
2022-12-14T08:39:10.125Z,16.88
2022-12-14T08:41:37.130Z,16.45
2022-12-14T08:44:04.956Z,18.13
2022-12-14T08:46:33.797Z,16.50
2022-12-14T08:49:01.479Z,16.90
2022-12-14T08:51:29.478Z,15.52
2022-12-14T08:53:57.374Z,15.68
2022-12-14T08:56:26.905Z,17.88
2022-12-14T08:58:54.431Z,15.90
2022-12-14T09:01:28.356Z,15.75
2022-12-14T09:04:03.708Z,15.68
2022-12-14T09:06:31.175Z,18.02
2022-12-14T09:08:58.515Z,16.17
2022-12-14T09:11:25.560Z,18.08
2022-12-14T09:13:56.435Z,17.90
2022-12-14T09:16:26.412Z,15.13
2022-12-14T09:18:55.176Z,15.07
2022-12-14T09:21:23.077Z,15.75
2022-12-14T09:23:54.172Z,16.83
2022-12-14T09:26:26.105Z,14.95
2022-12-14T09:28:55.113Z,15.82
2022-12-14T09:31:24.873Z,16.33
2022-12-14T09:33:55.514Z,15.15
2022-12-14T09:36:26.476Z,15.65
2022-12-14T09:38:58.119Z,16.08
2022-12-14T09:41:31.014Z,14.43
2022-12-14T09:44:03.718Z,14.48
2022-12-14T09:46:47.261Z,13.82
2022-12-14T09:49:29.404Z,14.55
2022-12-14T09:51:59.885Z,13.88
2022-12-14T09:54:33.660Z,14.15
2022-12-14T09:57:39.163Z,13.75
2022-12-14T10:00:19.490Z,13.07
2022-12-14T10:03:24.981Z,13.43
2022-12-14T10:05:55.388Z,13.55
2022-12-14T10:08:39.383Z,14.93
2022-12-14T10:11:11.557Z,12.25
2022-12-14T10:13:53.044Z,15.68
2022-12-14T10:16:27.571Z,14.35
2022-12-14T10:19:15.883Z,12.88
2022-12-14T10:21:49.176Z,13.15
2022-12-14T10:24:36.410Z,14.00
2022-12-14T10:27:06.745Z,12.80
2022-12-14T10:29:47.648Z,12.10
2022-12-14T10:32:28.443Z,11.43
2022-12-14T10:34:55.384Z,12.90
2022-12-14T10:37:30.302Z,11.85
2022-12-14T10:40:05.925Z,11.45
2022-12-14T10:42:58.146Z,10.73
2022-12-14T10:45:45.184Z,11.82
2022-12-14T10:48:37.425Z,12.20
2022-12-14T10:51:13.105Z,13.80
2022-12-14T10:53:49.070Z,12.10
2022-12-14T10:56:31.631Z,13.52
2022-12-14T10:59:23.841Z,12.75
2022-12-14T11:02:01.524Z,13.32
2022-12-14T11:04:30.286Z,12.60
2022-12-14T11:07:03.169Z,12.93
2022-12-14T11:09:34.495Z,13.27
2022-12-14T11:12:11.316Z,13.05
2022-12-14T11:14:41.369Z,15.77
2022-12-14T11:17:41.096Z,13.35
2022-12-14T11:20:16.385Z,12.98
2022-12-14T11:22:59.125Z,13.52
2022-12-14T11:25:38.940Z,12.65
2022-12-14T11:28:35.973Z,13.60
2022-12-14T11:31:27.028Z,12.52
2022-12-14T11:33:59.061Z,13.07
2022-12-14T11:36:41.127Z,12.90
2022-12-14T11:39:13.779Z,12.95
2022-12-14T11:41:43.796Z,13.50
2022-12-14T11:44:16.664Z,13.65
2022-12-14T11:46:58.589Z,13.77
2022-12-14T11:49:38.458Z,12.55
2022-12-14T11:52:05.597Z,12.55
2022-12-14T11:54:34.385Z,13.02
2022-12-14T11:57:17.849Z,12.07
2022-12-14T12:00:00.368Z,11.65
2022-12-14T12:05:08.628Z,11.45
2022-12-14T12:07:38.977Z,12.00
2022-12-14T12:10:27.529Z,11.27
2022-12-14T12:13:02.876Z,11.02
2022-12-14T12:15:36.224Z,11.77
2022-12-14T12:18:17.048Z,11.75
2022-12-14T12:21:14.712Z,10.90
2022-12-14T12:23:45.302Z,10.88
2022-12-14T12:26:18.061Z,10.95
2022-12-14T12:31:24.141Z,10.10
2022-12-14T12:34:03.636Z,10.25
2022-12-14T12:36:34.266Z,12.90
2022-12-14T12:39:12.745Z,11.55
2022-12-14T12:42:05.560Z,11.63
2022-12-14T12:45:14.067Z,12.00
2022-12-14T12:47:52.359Z,11.43
2022-12-14T12:50:29.080Z,10.45
2022-12-14T12:53:20.531Z,9.27
2022-12-14T12:55:54.366Z,8.98
2022-12-14T12:58:29.630Z,10.25
2022-12-14T13:01:00.744Z,9.75
2022-12-14T13:03:37.275Z,10.10
2022-12-14T13:06:28.780Z,11.38
2022-12-14T13:09:02.180Z,10.10
2022-12-14T13:11:38.285Z,9.80
2022-12-14T13:14:20.544Z,10.07
2022-12-14T13:16:49.751Z,10.95
2022-12-14T13:19:51.245Z,10.95
2022-12-14T13:22:26.999Z,9.43
2022-12-14T13:24:59.207Z,10.18
2022-12-14T13:28:07.932Z,11.25
2022-12-14T13:30:49.059Z,19.58
2022-12-14T13:33:25.492Z,11.48
2022-12-14T13:36:37.848Z,10.10
2022-12-14T13:39:39.954Z,10.80
2022-12-14T13:42:13.912Z,10.95
2022-12-14T13:45:02.124Z,12.25
2022-12-14T13:47:40.220Z,13.60
2022-12-14T13:50:51.305Z,13.57
2022-12-14T13:53:50.110Z,16.20
2022-12-14T13:56:31.057Z,14.05
2022-12-14T14:01:47.681Z,14.40
2022-12-14T14:04:19.918Z,14.88
2022-12-14T14:06:51.268Z,13.32
2022-12-14T14:09:28.249Z,13.67
2022-12-14T14:11:55.914Z,45.53
2022-12-14T14:14:47.780Z,46.47
2022-12-14T14:17:24.638Z,17.38
2022-12-14T14:19:56.714Z,13.60
2022-12-14T14:22:27.541Z,13.23
2022-12-14T14:25:09.759Z,10.98
2022-12-14T14:27:39.809Z,11.98
2022-12-14T14:30:52.034Z,11.82
2022-12-14T14:33:49.170Z,8.63
2022-12-14T14:36:33.077Z,11.13
2022-12-14T14:39:24.485Z,12.30
2022-12-14T14:41:55.069Z,11.60
2022-12-14T14:44:30.950Z,10.73
2022-12-14T14:46:58.411Z,11.38
2022-12-14T14:49:33.003Z,10.80
2022-12-14T14:52:37.689Z,11.32
2022-12-14T14:58:33.997Z,11.00
2022-12-14T15:01:11.122Z,12.32
2022-12-14T15:03:56.936Z,16.65
2022-12-14T15:06:26.576Z,12.43
2022-12-14T15:09:03.453Z,11.65
2022-12-14T15:11:41.776Z,12.50
2022-12-14T15:14:18.245Z,11.23
2022-12-14T15:16:45.750Z,13.32
2022-12-14T15:19:28.176Z,11.57
2022-12-14T15:22:13.139Z,11.20
2022-12-14T15:24:42.523Z,11.88
2022-12-14T15:27:32.282Z,14.63
2022-12-14T15:30:11.746Z,14.32
2022-12-14T15:32:52.231Z,13.40
2022-12-14T15:35:26.667Z,14.05
2022-12-14T15:41:31.673Z,16.88
2022-12-14T15:44:00.294Z,13.40
2022-12-14T15:46:34.857Z,15.95
2022-12-14T15:49:11.040Z,12.00
2022-12-14T15:51:41.207Z,16.48
2022-12-14T15:54:19.072Z,18.15
2022-12-14T15:56:50.082Z,16.33
2022-12-14T15:59:31.044Z,17.08
2022-12-14T16:02:17.283Z,16.77
2022-12-14T16:04:45.219Z,15.93
2022-12-14T16:07:39.447Z,18.65
2022-12-14T16:10:35.870Z,43.35
2022-12-14T16:13:28.887Z,15.82
2022-12-14T16:15:58.378Z,16.77
2022-12-14T16:18:25.801Z,16.92
2022-12-14T16:20:59.223Z,20.33
2022-12-14T16:23:31.175Z,16.50
2022-12-14T16:26:00.101Z,23.95
2022-12-14T16:28:37.897Z,27.08
2022-12-14T16:31:22.646Z,27.45
2022-12-14T16:34:15.620Z,20.35
2022-12-14T16:36:56.281Z,22.05
2022-12-14T16:39:38.951Z,22.02
2022-12-14T16:42:07.673Z,20.45
2022-12-14T16:44:38.483Z,19.98
2022-12-14T16:47:17.229Z,20.65
2022-12-14T16:50:40.148Z,18.77
2022-12-14T16:53:25.418Z,22.33
2022-12-14T16:56:17.269Z,22.17
2022-12-14T16:59:04.187Z,22.60
2022-12-14T17:01:47.156Z,19.38
2022-12-14T17:04:18.999Z,18.30
2022-12-14T17:06:52.317Z,16.90
2022-12-14T17:09:24.846Z,20.50
2022-12-14T17:11:57.086Z,18.73
2022-12-14T17:17:05.526Z,16.50
2022-12-14T17:19:35.796Z,18.08
2022-12-14T17:22:33.805Z,25.17
2022-12-14T17:25:02.462Z,28.85
2022-12-14T17:27:29.854Z,27.13
2022-12-14T17:29:57.541Z,22.30
2022-12-14T17:32:29.659Z,22.58
2022-12-14T17:35:05.580Z,17.67
2022-12-14T17:37:38.348Z,23.65
2022-12-14T17:45:40.939Z,21.60
2022-12-14T17:48:15.494Z,16.80
2022-12-14T17:50:47.065Z,18.77
2022-12-14T17:53:15.889Z,20.42
2022-12-14T17:55:42.791Z,19.08
2022-12-14T17:58:13.269Z,20.05
2022-12-14T18:01:00.467Z,18.92
2022-12-14T18:03:33.036Z,19.00
2022-12-14T18:06:00.808Z,18.23
2022-12-14T18:08:27.973Z,17.05
2022-12-14T18:11:05.456Z,17.98
2022-12-14T18:13:35.395Z,17.95
2022-12-14T18:16:02.694Z,18.40
2022-12-14T18:18:30.204Z,20.23
2022-12-14T18:21:02.691Z,19.35
2022-12-14T18:23:31.435Z,19.65
2022-12-14T18:26:02.361Z,17.92
2022-12-14T18:28:29.228Z,18.52
2022-12-14T18:30:59.689Z,18.27
2022-12-14T18:33:27.854Z,18.38
2022-12-14T18:35:56.664Z,18.90
2022-12-14T18:38:33.289Z,18.83
2022-12-14T18:41:02.726Z,22.42
2022-12-14T18:43:32.052Z,22.52
2022-12-14T18:46:00.491Z,24.63
2022-12-14T18:48:27.416Z,22.10
2022-12-14T18:50:57.285Z,24.15
2022-12-14T18:53:26.006Z,22.45
2022-12-14T18:55:53.701Z,20.05
2022-12-14T18:58:28.473Z,20.95
2022-12-14T19:01:00.219Z,18.50
2022-12-14T19:03:31.114Z,18.52
2022-12-14T19:06:42.851Z,18.48
2022-12-14T19:08:58.594Z,19.98
2022-12-14T19:11:34.299Z,22.08
2022-12-14T19:14:02.123Z,22.83
2022-12-14T19:16:29.537Z,22.77
2022-12-14T19:18:57.005Z,29.48
2022-12-14T19:21:28.703Z,30.90
2022-12-14T19:23:56.678Z,19.95
2022-12-14T19:26:23.817Z,17.70
2022-12-14T19:28:50.723Z,17.90
2022-12-14T19:31:17.766Z,17.35
2022-12-14T19:33:45.082Z,19.90
2022-12-14T19:36:12.323Z,28.00
2022-12-14T19:38:39.578Z,31.88
2022-12-14T19:41:12.316Z,24.00
2022-12-14T19:43:39.517Z,18.20
2022-12-14T19:46:11.830Z,18.55
2022-12-14T19:51:12.135Z,17.23
2022-12-14T19:53:41.075Z,16.75
2022-12-14T19:56:09.105Z,17.40
2022-12-14T19:58:37.011Z,21.15
2022-12-14T20:01:12.623Z,18.10
2022-12-14T20:03:40.151Z,20.77
2022-12-14T20:06:09.928Z,20.00
2022-12-14T20:08:36.928Z,20.90
2022-12-14T20:11:11.980Z,18.83
2022-12-14T20:13:38.940Z,15.07
2022-12-14T20:16:07.289Z,18.58
2022-12-14T20:18:34.382Z,18.50
2022-12-14T20:21:09.430Z,15.88
2022-12-14T20:23:39.389Z,14.00
2022-12-14T20:26:09.527Z,12.32
2022-12-14T20:28:36.588Z,16.15
2022-12-14T20:31:06.778Z,15.02
2022-12-14T20:33:37.102Z,14.10
2022-12-14T20:36:04.834Z,14.57
2022-12-14T20:38:46.364Z,14.68
2022-12-14T20:41:17.326Z,29.38
2022-12-14T20:43:45.306Z,23.65
2022-12-14T20:46:29.007Z,22.58
2022-12-14T20:49:01.428Z,32.97
2022-12-14T20:51:30.916Z,20.65
2022-12-14T20:54:05.975Z,18.75
2022-12-14T20:56:36.180Z,14.85
2022-12-14T20:59:04.462Z,15.70
2022-12-14T21:01:32.868Z,15.75
2022-12-14T21:04:01.469Z,14.40
2022-12-14T21:06:28.669Z,14.68
2022-12-14T21:09:11.909Z,17.23
2022-12-14T21:11:58.953Z,15.50
2022-12-14T21:14:28.893Z,14.15
2022-12-14T21:16:57.023Z,14.38
2022-12-14T21:19:24.162Z,14.50
2022-12-14T21:21:54.098Z,14.98
2022-12-14T21:24:52.667Z,14.38
2022-12-14T21:27:14.907Z,13.77
2022-12-14T21:32:08.680Z,14.50
2022-12-14T21:34:35.670Z,15.93
2022-12-14T21:37:02.736Z,15.43
2022-12-14T21:39:30.109Z,9.98
2022-12-14T21:42:15.610Z,10.35
2022-12-14T21:44:46.630Z,13.20
2022-12-14T21:47:35.497Z,16.45
2022-12-14T21:50:10.970Z,10.00
2022-12-14T21:52:37.959Z,10.40
2022-12-14T21:55:05.197Z,10.75
2022-12-14T21:57:50.875Z,11.93
2022-12-14T22:00:18.823Z,11.52
2022-12-14T22:02:46.204Z,12.20
2022-12-14T22:05:13.299Z,12.98
2022-12-14T22:07:40.176Z,11.35
2022-12-14T22:10:07.531Z,9.75
2022-12-14T22:12:34.530Z,8.02
2022-12-14T22:15:01.592Z,6.38
2022-12-14T22:17:28.617Z,8.30
2022-12-14T22:19:55.583Z,8.13
2022-12-14T22:22:22.901Z,9.30
2022-12-14T22:24:51.613Z,10.30
2022-12-14T22:27:19.991Z,10.85
2022-12-14T22:29:47.073Z,10.65
2022-12-14T22:32:14.653Z,7.30
2022-12-14T22:34:42.001Z,7.05
2022-12-14T22:37:09.003Z,7.20
2022-12-14T22:39:35.932Z,8.27
2022-12-14T22:42:03.057Z,9.15
2022-12-14T22:44:29.930Z,10.15
2022-12-14T22:46:56.775Z,8.75
2022-12-14T22:49:24.377Z,8.75
2022-12-14T22:51:51.221Z,8.93
2022-12-14T22:54:22.942Z,7.93
2022-12-14T22:56:58.933Z,7.57
2022-12-14T22:59:37.093Z,8.63
2022-12-14T23:02:04.618Z,7.75
2022-12-14T23:04:32.126Z,7.57
2022-12-14T23:06:58.980Z,10.70
2022-12-14T23:09:44.417Z,9.35
2022-12-14T23:12:29.770Z,7.88
2022-12-14T23:15:18.245Z,7.03
2022-12-14T23:18:03.657Z,7.25
2022-12-14T23:20:48.916Z,7.25
2022-12-14T23:23:38.320Z,7.65
2022-12-14T23:26:23.767Z,8.75
2022-12-14T23:29:09.398Z,8.70
2022-12-14T23:31:54.471Z,11.30
2022-12-14T23:34:39.982Z,8.77
2022-12-14T23:37:25.281Z,8.43
2022-12-14T23:40:10.813Z,11.02
2022-12-14T23:42:56.309Z,8.68
2022-12-14T23:45:41.543Z,9.35
2022-12-14T23:48:27.022Z,7.95
2022-12-14T23:51:12.516Z,8.85
2022-12-14T23:53:58.077Z,9.73
2022-12-14T23:56:43.663Z,12.20
2022-12-14T23:59:32.408Z,11.00
